sensor_id;sensor_type;location;lat;lon;timestamp;temperature;humidity
38209;DHT22;24016;52.102;11.584;2022-09-02T00:02:11;12.90;99.90
38209;DHT22;24016;52.102;11.584;2022-09-02T00:04:37;12.90;99.90
38209;DHT22;24016;52.102;11.584;2022-09-02T00:07:03;12.90;99.90
38209;DHT22;24016;52.102;11.584;2022-09-02T00:09:29;12.90;99.90
38209;DHT22;24016;52.102;11.584;2022-09-02T00:11:55;12.90;99.90
38209;DHT22;24016;52.102;11.584;2022-09-02T00:14:28;12.90;99.90
38209;DHT22;24016;52.102;11.584;2022-09-02T00:16:54;12.90;99.90
38209;DHT22;24016;52.102;11.584;2022-09-02T00:19:22;12.90;99.90
38209;DHT22;24016;52.102;11.584;2022-09-02T00:21:49;12.80;99.90
38209;DHT22;24016;52.102;11.584;2022-09-02T00:24:14;12.80;99.90
38209;DHT22;24016;52.102;11.584;2022-09-02T00:26:40;12.80;99.90
38209;DHT22;24016;52.102;11.584;2022-09-02T00:29:06;12.70;99.90
38209;DHT22;24016;52.102;11.584;2022-09-02T00:31:31;12.70;99.90
38209;DHT22;24016;52.102;11.584;2022-09-02T00:33:58;12.70;99.90
38209;DHT22;24016;52.102;11.584;2022-09-02T00:36:24;12.70;99.90
38209;DHT22;24016;52.102;11.584;2022-09-02T00:38:50;12.70;99.90
38209;DHT22;24016;52.102;11.584;2022-09-02T00:41:19;12.70;99.90
38209;DHT22;24016;52.102;11.584;2022-09-02T00:43:48;12.60;99.90
38209;DHT22;24016;52.102;11.584;2022-09-02T00:46:17;12.70;99.90
38209;DHT22;24016;52.102;11.584;2022-09-02T00:48:55;12.70;99.90
38209;DHT22;24016;52.102;11.584;2022-09-02T00:51:21;12.70;99.90
38209;DHT22;24016;52.102;11.584;2022-09-02T00:53:47;12.80;99.90
38209;DHT22;24016;52.102;11.584;2022-09-02T00:56:20;12.80;99.90
38209;DHT22;24016;52.102;11.584;2022-09-02T00:58:49;12.90;99.90
38209;DHT22;24016;52.102;11.584;2022-09-02T01:01:15;12.90;99.90
38209;DHT22;24016;52.102;11.584;2022-09-02T01:03:41;13.00;99.90
38209;DHT22;24016;52.102;11.584;2022-09-02T01:06:09;13.00;99.90
38209;DHT22;24016;52.102;11.584;2022-09-02T01:08:36;13.10;99.90
38209;DHT22;24016;52.102;11.584;2022-09-02T01:11:04;13.20;99.90
38209;DHT22;24016;52.102;11.584;2022-09-02T01:13:36;13.30;99.90
38209;DHT22;24016;52.102;11.584;2022-09-02T01:16:22;13.30;99.90
38209;DHT22;24016;52.102;11.584;2022-09-02T01:18:50;13.40;99.90
38209;DHT22;24016;52.102;11.584;2022-09-02T01:21:17;13.40;99.90
38209;DHT22;24016;52.102;11.584;2022-09-02T01:23:43;13.50;99.90
38209;DHT22;24016;52.102;11.584;2022-09-02T01:26:10;13.50;99.90
38209;DHT22;24016;52.102;11.584;2022-09-02T01:28:36;13.60;99.90
38209;DHT22;24016;52.102;11.584;2022-09-02T01:33:37;13.70;99.90
38209;DHT22;24016;52.102;11.584;2022-09-02T01:36:03;13.70;99.90
38209;DHT22;24016;52.102;11.584;2022-09-02T01:38:30;13.70;99.90
38209;DHT22;24016;52.102;11.584;2022-09-02T01:40:56;13.70;99.90
38209;DHT22;24016;52.102;11.584;2022-09-02T01:43:23;13.70;99.90
38209;DHT22;24016;52.102;11.584;2022-09-02T01:45:54;13.70;99.90
38209;DHT22;24016;52.102;11.584;2022-09-02T01:48:20;13.70;99.90
38209;DHT22;24016;52.102;11.584;2022-09-02T01:50:50;13.70;99.90
38209;DHT22;24016;52.102;11.584;2022-09-02T01:53:16;13.70;99.90
38209;DHT22;24016;52.102;11.584;2022-09-02T01:55:42;13.70;99.90
38209;DHT22;24016;52.102;11.584;2022-09-02T01:58:08;13.70;99.90
38209;DHT22;24016;52.102;11.584;2022-09-02T02:00:34;13.70;99.90
38209;DHT22;24016;52.102;11.584;2022-09-02T02:02:59;13.60;99.90
38209;DHT22;24016;52.102;11.584;2022-09-02T02:05:25;13.60;99.90
38209;DHT22;24016;52.102;11.584;2022-09-02T02:07:50;13.50;99.90
38209;DHT22;24016;52.102;11.584;2022-09-02T02:10:19;13.40;99.90
38209;DHT22;24016;52.102;11.584;2022-09-02T02:12:45;13.30;99.90
38209;DHT22;24016;52.102;11.584;2022-09-02T02:15:14;13.20;99.90
38209;DHT22;24016;52.102;11.584;2022-09-02T02:17:41;13.10;99.90
38209;DHT22;24016;52.102;11.584;2022-09-02T02:20:07;13.00;99.90
38209;DHT22;24016;52.102;11.584;2022-09-02T02:22:34;12.90;99.90
38209;DHT22;24016;52.102;11.584;2022-09-02T02:25:00;12.80;99.90
38209;DHT22;24016;52.102;11.584;2022-09-02T02:27:25;12.70;99.90
38209;DHT22;24016;52.102;11.584;2022-09-02T02:29:51;12.70;99.90
38209;DHT22;24016;52.102;11.584;2022-09-02T02:32:17;12.60;99.90
38209;DHT22;24016;52.102;11.584;2022-09-02T02:34:44;12.50;99.90
38209;DHT22;24016;52.102;11.584;2022-09-02T02:37:10;12.50;99.90
38209;DHT22;24016;52.102;11.584;2022-09-02T02:39:38;12.40;99.90
38209;DHT22;24016;52.102;11.584;2022-09-02T02:42:04;12.40;99.90
38209;DHT22;24016;52.102;11.584;2022-09-02T02:44:30;12.30;99.90
38209;DHT22;24016;52.102;11.584;2022-09-02T02:46:55;12.20;99.90
38209;DHT22;24016;52.102;11.584;2022-09-02T02:49:21;12.20;99.90
38209;DHT22;24016;52.102;11.584;2022-09-02T02:51:47;12.20;99.90
38209;DHT22;24016;52.102;11.584;2022-09-02T02:54:13;12.10;99.90
38209;DHT22;24016;52.102;11.584;2022-09-02T02:56:39;12.10;99.90
38209;DHT22;24016;52.102;11.584;2022-09-02T02:59:05;12.10;99.90
38209;DHT22;24016;52.102;11.584;2022-09-02T03:01:30;12.10;99.90
38209;DHT22;24016;52.102;11.584;2022-09-02T03:03:56;12.00;99.90
38209;DHT22;24016;52.102;11.584;2022-09-02T03:06:22;11.90;99.90
38209;DHT22;24016;52.102;11.584;2022-09-02T03:08:48;11.90;99.90
38209;DHT22;24016;52.102;11.584;2022-09-02T03:11:14;11.90;99.90
38209;DHT22;24016;52.102;11.584;2022-09-02T03:13:40;11.90;99.90
38209;DHT22;24016;52.102;11.584;2022-09-02T03:16:06;11.90;99.90
38209;DHT22;24016;52.102;11.584;2022-09-02T03:18:32;11.70;99.90
38209;DHT22;24016;52.102;11.584;2022-09-02T03:20:58;11.70;99.90
38209;DHT22;24016;52.102;11.584;2022-09-02T03:23:24;11.60;99.90
38209;DHT22;24016;52.102;11.584;2022-09-02T03:25:50;11.60;99.90
38209;DHT22;24016;52.102;11.584;2022-09-02T03:28:15;11.50;99.90
38209;DHT22;24016;52.102;11.584;2022-09-02T03:30:44;11.50;99.90
38209;DHT22;24016;52.102;11.584;2022-09-02T03:33:10;11.50;99.90
38209;DHT22;24016;52.102;11.584;2022-09-02T03:35:40;11.40;99.90
38209;DHT22;24016;52.102;11.584;2022-09-02T03:38:08;11.40;99.90
38209;DHT22;24016;52.102;11.584;2022-09-02T03:40:34;11.30;99.90
38209;DHT22;24016;52.102;11.584;2022-09-02T03:43:00;11.30;99.90
38209;DHT22;24016;52.102;11.584;2022-09-02T03:45:25;11.20;99.90
38209;DHT22;24016;52.102;11.584;2022-09-02T03:47:51;11.20;99.90
38209;DHT22;24016;52.102;11.584;2022-09-02T03:50:34;11.10;99.90
38209;DHT22;24016;52.102;11.584;2022-09-02T03:53:01;11.10;99.90
38209;DHT22;24016;52.102;11.584;2022-09-02T03:55:27;11.00;99.90
38209;DHT22;24016;52.102;11.584;2022-09-02T03:57:53;10.90;99.90
38209;DHT22;24016;52.102;11.584;2022-09-02T04:00:21;10.90;99.90
38209;DHT22;24016;52.102;11.584;2022-09-02T04:02:49;10.80;99.90
38209;DHT22;24016;52.102;11.584;2022-09-02T04:05:15;10.70;99.90
38209;DHT22;24016;52.102;11.584;2022-09-02T04:07:41;10.70;99.90
38209;DHT22;24016;52.102;11.584;2022-09-02T04:10:08;10.60;99.90
38209;DHT22;24016;52.102;11.584;2022-09-02T04:12:35;10.50;99.90
38209;DHT22;24016;52.102;11.584;2022-09-02T04:15:05;10.30;99.90
38209;DHT22;24016;52.102;11.584;2022-09-02T04:17:35;10.20;99.90
38209;DHT22;24016;52.102;11.584;2022-09-02T04:20:02;10.10;99.90
38209;DHT22;24016;52.102;11.584;2022-09-02T04:22:28;10.10;99.90
38209;DHT22;24016;52.102;11.584;2022-09-02T04:24:53;9.90;99.90
38209;DHT22;24016;52.102;11.584;2022-09-02T04:27:19;9.90;99.90
38209;DHT22;24016;52.102;11.584;2022-09-02T04:29:44;9.80;99.90
38209;DHT22;24016;52.102;11.584;2022-09-02T04:32:10;9.80;99.90
38209;DHT22;24016;52.102;11.584;2022-09-02T04:34:35;9.70;99.90
38209;DHT22;24016;52.102;11.584;2022-09-02T04:37:01;9.70;99.90
38209;DHT22;24016;52.102;11.584;2022-09-02T04:39:26;9.60;99.90
38209;DHT22;24016;52.102;11.584;2022-09-02T04:41:52;9.50;99.90
38209;DHT22;24016;52.102;11.584;2022-09-02T04:44:18;9.50;99.90
38209;DHT22;24016;52.102;11.584;2022-09-02T04:46:44;9.50;99.90
38209;DHT22;24016;52.102;11.584;2022-09-02T04:49:09;9.50;99.90
38209;DHT22;24016;52.102;11.584;2022-09-02T04:51:35;9.50;99.90
38209;DHT22;24016;52.102;11.584;2022-09-02T04:54:01;9.50;99.90
38209;DHT22;24016;52.102;11.584;2022-09-02T04:56:28;9.50;99.90
38209;DHT22;24016;52.102;11.584;2022-09-02T04:58:55;9.50;99.90
38209;DHT22;24016;52.102;11.584;2022-09-02T05:01:26;9.50;99.90
38209;DHT22;24016;52.102;11.584;2022-09-02T05:03:53;9.40;99.90
38209;DHT22;24016;52.102;11.584;2022-09-02T05:06:24;9.40;99.90
38209;DHT22;24016;52.102;11.584;2022-09-02T05:08:54;9.40;99.90
38209;DHT22;24016;52.102;11.584;2022-09-02T05:11:22;9.50;99.90
38209;DHT22;24016;52.102;11.584;2022-09-02T05:13:52;9.50;99.90
38209;DHT22;24016;52.102;11.584;2022-09-02T05:16:24;9.50;99.90
38209;DHT22;24016;52.102;11.584;2022-09-02T05:18:51;9.60;99.90
38209;DHT22;24016;52.102;11.584;2022-09-02T05:21:17;9.60;99.90
38209;DHT22;24016;52.102;11.584;2022-09-02T05:23:43;9.70;99.90
38209;DHT22;24016;52.102;11.584;2022-09-02T05:26:10;9.80;99.90
38209;DHT22;24016;52.102;11.584;2022-09-02T05:28:38;9.80;99.90
38209;DHT22;24016;52.102;11.584;2022-09-02T05:31:06;9.80;99.90
38209;DHT22;24016;52.102;11.584;2022-09-02T05:33:33;9.90;99.90
38209;DHT22;24016;52.102;11.584;2022-09-02T05:36:02;10.00;99.90
38209;DHT22;24016;52.102;11.584;2022-09-02T05:38:27;10.00;99.90
38209;DHT22;24016;52.102;11.584;2022-09-02T05:40:53;10.20;99.90
38209;DHT22;24016;52.102;11.584;2022-09-02T05:43:19;10.20;99.90
38209;DHT22;24016;52.102;11.584;2022-09-02T05:45:44;10.30;99.90
38209;DHT22;24016;52.102;11.584;2022-09-02T05:48:11;10.40;99.90
38209;DHT22;24016;52.102;11.584;2022-09-02T05:50:56;10.50;99.90
38209;DHT22;24016;52.102;11.584;2022-09-02T05:53:21;10.60;99.90
38209;DHT22;24016;52.102;11.584;2022-09-02T05:55:47;10.70;99.90
38209;DHT22;24016;52.102;11.584;2022-09-02T05:58:14;10.80;99.90
38209;DHT22;24016;52.102;11.584;2022-09-02T06:00:39;10.80;99.90
38209;DHT22;24016;52.102;11.584;2022-09-02T06:03:05;10.90;99.90
38209;DHT22;24016;52.102;11.584;2022-09-02T06:05:30;11.00;99.90
38209;DHT22;24016;52.102;11.584;2022-09-02T06:07:56;11.20;99.90
38209;DHT22;24016;52.102;11.584;2022-09-02T06:10:22;11.40;99.90
38209;DHT22;24016;52.102;11.584;2022-09-02T06:12:47;11.60;99.90
38209;DHT22;24016;52.102;11.584;2022-09-02T06:15:13;11.70;99.90
38209;DHT22;24016;52.102;11.584;2022-09-02T06:17:39;11.80;99.90
38209;DHT22;24016;52.102;11.584;2022-09-02T06:20:05;12.00;99.90
38209;DHT22;24016;52.102;11.584;2022-09-02T06:22:31;12.10;99.90
38209;DHT22;24016;52.102;11.584;2022-09-02T06:24:56;12.20;99.90
38209;DHT22;24016;52.102;11.584;2022-09-02T06:27:22;12.30;99.90
38209;DHT22;24016;52.102;11.584;2022-09-02T06:29:48;12.30;99.90
38209;DHT22;24016;52.102;11.584;2022-09-02T06:32:14;12.40;99.90
38209;DHT22;24016;52.102;11.584;2022-09-02T06:34:39;12.50;99.90
38209;DHT22;24016;52.102;11.584;2022-09-02T06:37:05;12.60;99.90
38209;DHT22;24016;52.102;11.584;2022-09-02T06:39:31;12.80;99.90
38209;DHT22;24016;52.102;11.584;2022-09-02T06:41:56;12.80;99.90
38209;DHT22;24016;52.102;11.584;2022-09-02T06:44:23;13.00;99.90
38209;DHT22;24016;52.102;11.584;2022-09-02T06:46:54;13.10;99.90
38209;DHT22;24016;52.102;11.584;2022-09-02T06:49:20;13.20;99.90
38209;DHT22;24016;52.102;11.584;2022-09-02T06:51:47;13.30;99.90
38209;DHT22;24016;52.102;11.584;2022-09-02T06:54:16;13.50;99.90
38209;DHT22;24016;52.102;11.584;2022-09-02T06:56:43;13.60;99.90
38209;DHT22;24016;52.102;11.584;2022-09-02T06:59:09;13.70;99.90
38209;DHT22;24016;52.102;11.584;2022-09-02T07:01:35;13.80;99.90
38209;DHT22;24016;52.102;11.584;2022-09-02T07:04:01;13.90;99.90
38209;DHT22;24016;52.102;11.584;2022-09-02T07:06:49;14.10;99.90
38209;DHT22;24016;52.102;11.584;2022-09-02T07:09:20;14.20;99.90
38209;DHT22;24016;52.102;11.584;2022-09-02T07:11:48;14.40;99.90
38209;DHT22;24016;52.102;11.584;2022-09-02T07:14:19;14.50;99.90
38209;DHT22;24016;52.102;11.584;2022-09-02T07:16:50;14.50;99.90
38209;DHT22;24016;52.102;11.584;2022-09-02T07:19:17;14.60;99.90
38209;DHT22;24016;52.102;11.584;2022-09-02T07:21:43;14.80;99.90
38209;DHT22;24016;52.102;11.584;2022-09-02T07:24:10;14.80;99.90
38209;DHT22;24016;52.102;11.584;2022-09-02T07:26:36;14.90;99.90
38209;DHT22;24016;52.102;11.584;2022-09-02T07:29:03;14.90;99.90
38209;DHT22;24016;52.102;11.584;2022-09-02T07:31:29;14.90;99.90
38209;DHT22;24016;52.102;11.584;2022-09-02T07:33:55;15.00;99.90
38209;DHT22;24016;52.102;11.584;2022-09-02T07:36:25;15.00;99.90
38209;DHT22;24016;52.102;11.584;2022-09-02T07:38:51;15.00;99.90
38209;DHT22;24016;52.102;11.584;2022-09-02T07:41:19;15.10;99.90
38209;DHT22;24016;52.102;11.584;2022-09-02T07:43:45;15.20;99.90
38209;DHT22;24016;52.102;11.584;2022-09-02T07:46:11;15.30;99.90
38209;DHT22;24016;52.102;11.584;2022-09-02T07:48:36;15.50;99.90
38209;DHT22;24016;52.102;11.584;2022-09-02T07:51:03;15.60;99.90
38209;DHT22;24016;52.102;11.584;2022-09-02T07:53:29;15.80;99.90
38209;DHT22;24016;52.102;11.584;2022-09-02T07:55:56;16.10;99.90
38209;DHT22;24016;52.102;11.584;2022-09-02T07:58:22;16.60;99.90
38209;DHT22;24016;52.102;11.584;2022-09-02T08:00:49;16.70;99.90
38209;DHT22;24016;52.102;11.584;2022-09-02T08:03:14;16.80;99.90
38209;DHT22;24016;52.102;11.584;2022-09-02T08:05:41;17.20;99.90
38209;DHT22;24016;52.102;11.584;2022-09-02T08:08:09;17.40;99.90
38209;DHT22;24016;52.102;11.584;2022-09-02T08:10:35;17.40;99.90
38209;DHT22;24016;52.102;11.584;2022-09-02T08:13:02;17.40;99.90
38209;DHT22;24016;52.102;11.584;2022-09-02T08:15:31;17.60;99.90
38209;DHT22;24016;52.102;11.584;2022-09-02T08:17:57;17.90;99.90
38209;DHT22;24016;52.102;11.584;2022-09-02T08:20:23;18.60;99.90
38209;DHT22;24016;52.102;11.584;2022-09-02T08:22:49;19.10;99.90
38209;DHT22;24016;52.102;11.584;2022-09-02T08:25:15;19.80;99.90
38209;DHT22;24016;52.102;11.584;2022-09-02T08:27:43;20.80;99.90
38209;DHT22;24016;52.102;11.584;2022-09-02T08:30:09;21.30;99.90
38209;DHT22;24016;52.102;11.584;2022-09-02T08:32:35;21.60;99.90
38209;DHT22;24016;52.102;11.584;2022-09-02T08:35:01;22.10;99.90
38209;DHT22;24016;52.102;11.584;2022-09-02T08:37:29;22.00;99.90
38209;DHT22;24016;52.102;11.584;2022-09-02T08:39:58;22.10;99.90
38209;DHT22;24016;52.102;11.584;2022-09-02T08:42:31;21.90;99.90
38209;DHT22;24016;52.102;11.584;2022-09-02T08:45:03;22.30;99.90
38209;DHT22;24016;52.102;11.584;2022-09-02T08:47:32;22.80;99.90
38209;DHT22;24016;52.102;11.584;2022-09-02T08:50:03;23.30;99.90
38209;DHT22;24016;52.102;11.584;2022-09-02T08:52:40;22.80;99.90
38209;DHT22;24016;52.102;11.584;2022-09-02T08:55:11;22.60;99.90
38209;DHT22;24016;52.102;11.584;2022-09-02T08:57:42;22.90;99.90
38209;DHT22;24016;52.102;11.584;2022-09-02T09:00:09;22.90;99.90
38209;DHT22;24016;52.102;11.584;2022-09-02T09:05:18;23.30;99.90
38209;DHT22;24016;52.102;11.584;2022-09-02T09:08:25;24.00;99.70
38209;DHT22;24016;52.102;11.584;2022-09-02T09:11:02;24.10;99.30
38209;DHT22;24016;52.102;11.584;2022-09-02T09:16:29;23.90;98.20
38209;DHT22;24016;52.102;11.584;2022-09-02T09:19:12;23.70;97.80
38209;DHT22;24016;52.102;11.584;2022-09-02T09:21:39;23.60;97.90
38209;DHT22;24016;52.102;11.584;2022-09-02T09:24:27;24.00;97.00
38209;DHT22;24016;52.102;11.584;2022-09-02T09:26:54;24.90;96.70
38209;DHT22;24016;52.102;11.584;2022-09-02T09:29:20;25.20;96.20
38209;DHT22;24016;52.102;11.584;2022-09-02T09:31:54;24.40;95.10
38209;DHT22;24016;52.102;11.584;2022-09-02T09:34:20;24.40;95.50
38209;DHT22;24016;52.102;11.584;2022-09-02T09:36:51;24.10;95.00
38209;DHT22;24016;52.102;11.584;2022-09-02T09:41:56;24.10;94.40
38209;DHT22;24016;52.102;11.584;2022-09-02T09:44:43;24.10;94.70
38209;DHT22;24016;52.102;11.584;2022-09-02T09:47:35;24.60;94.90
38209;DHT22;24016;52.102;11.584;2022-09-02T09:50:13;24.60;93.80
38209;DHT22;24016;52.102;11.584;2022-09-02T09:52:40;24.20;93.40
38209;DHT22;24016;52.102;11.584;2022-09-02T09:55:18;24.20;92.90
38209;DHT22;24016;52.102;11.584;2022-09-02T09:57:45;24.30;92.80
38209;DHT22;24016;52.102;11.584;2022-09-02T10:00:27;24.60;92.60
38209;DHT22;24016;52.102;11.584;2022-09-02T10:02:55;24.90;92.50
38209;DHT22;24016;52.102;11.584;2022-09-02T10:05:27;25.20;92.80
38209;DHT22;24016;52.102;11.584;2022-09-02T10:07:57;25.80;91.50
38209;DHT22;24016;52.102;11.584;2022-09-02T10:10:25;25.80;92.30
38209;DHT22;24016;52.102;11.584;2022-09-02T10:12:53;26.30;91.50
38209;DHT22;24016;52.102;11.584;2022-09-02T10:15:35;25.80;91.40
38209;DHT22;24016;52.102;11.584;2022-09-02T10:18:18;24.30;91.00
38209;DHT22;24016;52.102;11.584;2022-09-02T10:20:54;24.70;91.60
38209;DHT22;24016;52.102;11.584;2022-09-02T10:26:09;25.30;90.40
38209;DHT22;24016;52.102;11.584;2022-09-02T10:31:40;25.00;90.30
38209;DHT22;24016;52.102;11.584;2022-09-02T10:34:39;25.80;90.10
38209;DHT22;24016;52.102;11.584;2022-09-02T10:37:18;26.40;88.90
38209;DHT22;24016;52.102;11.584;2022-09-02T10:45:29;26.80;87.70
38209;DHT22;24016;52.102;11.584;2022-09-02T10:50:47;27.10;86.20
38209;DHT22;24016;52.102;11.584;2022-09-02T10:56:19;27.60;85.60
38209;DHT22;24016;52.102;11.584;2022-09-02T11:01:42;27.50;84.50
38209;DHT22;24016;52.102;11.584;2022-09-02T11:04:21;27.40;84.90
38209;DHT22;24016;52.102;11.584;2022-09-02T11:06:50;27.60;83.60
38209;DHT22;24016;52.102;11.584;2022-09-02T11:09:43;28.50;82.90
38209;DHT22;24016;52.102;11.584;2022-09-02T11:12:28;28.10;81.80
38209;DHT22;24016;52.102;11.584;2022-09-02T11:15:16;27.50;81.80
38209;DHT22;24016;52.102;11.584;2022-09-02T11:17:49;27.20;81.60
38209;DHT22;24016;52.102;11.584;2022-09-02T11:20:51;26.00;83.20
38209;DHT22;24016;52.102;11.584;2022-09-02T11:23:49;24.20;85.30
38209;DHT22;24016;52.102;11.584;2022-09-02T11:26:25;24.10;87.60
38209;DHT22;24016;52.102;11.584;2022-09-02T11:29:10;25.80;85.40
38209;DHT22;24016;52.102;11.584;2022-09-02T11:34:35;26.30;83.90
38209;DHT22;24016;52.102;11.584;2022-09-02T11:37:08;26.30;83.50
38209;DHT22;24016;52.102;11.584;2022-09-02T11:39:51;25.50;83.80
38209;DHT22;24016;52.102;11.584;2022-09-02T11:42:30;24.70;84.60
38209;DHT22;24016;52.102;11.584;2022-09-02T11:45:15;24.60;85.60
38209;DHT22;24016;52.102;11.584;2022-09-02T11:48:15;24.20;85.20
38209;DHT22;24016;52.102;11.584;2022-09-02T11:53:53;24.40;84.80
38209;DHT22;24016;52.102;11.584;2022-09-02T11:56:30;25.70;83.20
38209;DHT22;24016;52.102;11.584;2022-09-02T11:58:59;26.80;83.30
38209;DHT22;24016;52.102;11.584;2022-09-02T12:01:51;27.60;83.00
38209;DHT22;24016;52.102;11.584;2022-09-02T12:04:24;27.30;81.40
38209;DHT22;24016;52.102;11.584;2022-09-02T12:09:48;26.70;81.80
38209;DHT22;24016;52.102;11.584;2022-09-02T12:18:04;27.00;81.40
38209;DHT22;24016;52.102;11.584;2022-09-02T12:23:03;24.50;84.20
38209;DHT22;24016;52.102;11.584;2022-09-02T12:33:39;24.40;82.90
38209;DHT22;24016;52.102;11.584;2022-09-02T12:36:06;23.90;85.00
38209;DHT22;24016;52.102;11.584;2022-09-02T12:38:37;24.90;85.50
38209;DHT22;24016;52.102;11.584;2022-09-02T12:48:41;28.20;79.20
38209;DHT22;24016;52.102;11.584;2022-09-02T12:51:09;28.40;78.80
38209;DHT22;24016;52.102;11.584;2022-09-02T12:53:40;28.50;78.70
38209;DHT22;24016;52.102;11.584;2022-09-02T12:56:19;28.50;78.20
38209;DHT22;24016;52.102;11.584;2022-09-02T12:58:56;28.40;78.70
38209;DHT22;24016;52.102;11.584;2022-09-02T13:12:57;28.20;76.70
38209;DHT22;24016;52.102;11.584;2022-09-02T13:15:50;27.50;77.50
38209;DHT22;24016;52.102;11.584;2022-09-02T13:21:20;28.30;77.10
38209;DHT22;24016;52.102;11.584;2022-09-02T13:34:47;24.90;81.20
38209;DHT22;24016;52.102;11.584;2022-09-02T13:37:26;24.90;82.30
38209;DHT22;24016;52.102;11.584;2022-09-02T13:39:52;24.90;83.50
38209;DHT22;24016;52.102;11.584;2022-09-02T13:42:22;25.00;83.10
38209;DHT22;24016;52.102;11.584;2022-09-02T13:44:48;25.10;82.40
38209;DHT22;24016;52.102;11.584;2022-09-02T13:47:17;25.10;84.30
38209;DHT22;24016;52.102;11.584;2022-09-02T13:49:48;25.40;83.10
38209;DHT22;24016;52.102;11.584;2022-09-02T13:52:18;25.40;82.20
38209;DHT22;24016;52.102;11.584;2022-09-02T13:54:47;25.20;81.80
38209;DHT22;24016;52.102;11.584;2022-09-02T13:57:18;24.80;81.50
38209;DHT22;24016;52.102;11.584;2022-09-02T13:59:48;24.70;82.00
38209;DHT22;24016;52.102;11.584;2022-09-02T14:02:27;24.70;81.90
38209;DHT22;24016;52.102;11.584;2022-09-02T14:05:00;24.20;82.50
38209;DHT22;24016;52.102;11.584;2022-09-02T14:07:49;23.80;83.40
38209;DHT22;24016;52.102;11.584;2022-09-02T14:10:18;23.20;83.40
38209;DHT22;24016;52.102;11.584;2022-09-02T14:12:44;22.90;84.70
38209;DHT22;24016;52.102;11.584;2022-09-02T14:15:16;22.90;84.90
38209;DHT22;24016;52.102;11.584;2022-09-02T14:18:15;22.70;85.30
38209;DHT22;24016;52.102;11.584;2022-09-02T14:23:27;22.20;85.70
38209;DHT22;24016;52.102;11.584;2022-09-02T14:25:58;22.20;85.60
38209;DHT22;24016;52.102;11.584;2022-09-02T14:28:27;22.10;86.40
38209;DHT22;24016;52.102;11.584;2022-09-02T14:30:56;22.10;85.70
38209;DHT22;24016;52.102;11.584;2022-09-02T14:36:08;21.70;86.70
38209;DHT22;24016;52.102;11.584;2022-09-02T14:38:50;21.60;87.00
38209;DHT22;24016;52.102;11.584;2022-09-02T14:43:48;21.40;87.00
38209;DHT22;24016;52.102;11.584;2022-09-02T14:46:22;21.30;87.20
38209;DHT22;24016;52.102;11.584;2022-09-02T14:49:08;21.40;87.80
38209;DHT22;24016;52.102;11.584;2022-09-02T14:51:52;21.70;86.70
38209;DHT22;24016;52.102;11.584;2022-09-02T14:54:39;21.80;85.70
38209;DHT22;24016;52.102;11.584;2022-09-02T14:57:22;21.90;85.20
38209;DHT22;24016;52.102;11.584;2022-09-02T14:59:49;22.10;85.10
38209;DHT22;24016;52.102;11.584;2022-09-02T15:02:31;22.20;85.30
38209;DHT22;24016;52.102;11.584;2022-09-02T15:04:59;22.20;86.00
38209;DHT22;24016;52.102;11.584;2022-09-02T15:07:25;22.20;84.50
38209;DHT22;24016;52.102;11.584;2022-09-02T15:09:51;22.20;85.10
38209;DHT22;24016;52.102;11.584;2022-09-02T15:12:23;22.30;84.90
38209;DHT22;24016;52.102;11.584;2022-09-02T15:14:50;22.10;84.40
38209;DHT22;24016;52.102;11.584;2022-09-02T15:17:16;22.10;84.80
38209;DHT22;24016;52.102;11.584;2022-09-02T15:19:42;22.00;84.90
38209;DHT22;24016;52.102;11.584;2022-09-02T15:22:08;21.90;84.80
38209;DHT22;24016;52.102;11.584;2022-09-02T15:24:33;21.90;85.10
38209;DHT22;24016;52.102;11.584;2022-09-02T15:26:59;22.00;85.10
38209;DHT22;24016;52.102;11.584;2022-09-02T15:29:24;22.20;86.30
38209;DHT22;24016;52.102;11.584;2022-09-02T15:31:51;22.30;86.30
38209;DHT22;24016;52.102;11.584;2022-09-02T15:34:17;22.30;87.30
38209;DHT22;24016;52.102;11.584;2022-09-02T15:36:42;22.10;87.40
38209;DHT22;24016;52.102;11.584;2022-09-02T15:39:08;21.90;88.10
38209;DHT22;24016;52.102;11.584;2022-09-02T15:41:34;21.60;88.60
38209;DHT22;24016;52.102;11.584;2022-09-02T15:44:00;21.40;89.10
38209;DHT22;24016;52.102;11.584;2022-09-02T15:46:30;21.20;89.70
38209;DHT22;24016;52.102;11.584;2022-09-02T15:49:01;21.00;90.00
38209;DHT22;24016;52.102;11.584;2022-09-02T15:51:27;20.90;90.30
38209;DHT22;24016;52.102;11.584;2022-09-02T15:53:57;20.80;90.10
38209;DHT22;24016;52.102;11.584;2022-09-02T15:56:25;20.70;90.20
38209;DHT22;24016;52.102;11.584;2022-09-02T15:59:01;20.60;90.40
38209;DHT22;24016;52.102;11.584;2022-09-02T16:01:30;20.50;90.40
38209;DHT22;24016;52.102;11.584;2022-09-02T16:03:56;20.40;90.40
38209;DHT22;24016;52.102;11.584;2022-09-02T16:06:23;20.40;90.80
38209;DHT22;24016;52.102;11.584;2022-09-02T16:08:48;20.50;90.80
38209;DHT22;24016;52.102;11.584;2022-09-02T16:11:14;20.70;90.60
38209;DHT22;24016;52.102;11.584;2022-09-02T16:13:40;20.90;90.70
38209;DHT22;24016;52.102;11.584;2022-09-02T16:16:08;21.10;90.50
38209;DHT22;24016;52.102;11.584;2022-09-02T16:18:35;21.20;90.10
38209;DHT22;24016;52.102;11.584;2022-09-02T16:21:01;21.10;90.40
38209;DHT22;24016;52.102;11.584;2022-09-02T16:23:27;21.00;90.20
38209;DHT22;24016;52.102;11.584;2022-09-02T16:26:29;21.10;90.50
38209;DHT22;24016;52.102;11.584;2022-09-02T16:28:58;20.90;90.40
38209;DHT22;24016;52.102;11.584;2022-09-02T16:31:25;20.80;90.70
38209;DHT22;24016;52.102;11.584;2022-09-02T16:34:06;20.70;90.60
38209;DHT22;24016;52.102;11.584;2022-09-02T16:36:35;20.60;90.60
38209;DHT22;24016;52.102;11.584;2022-09-02T16:39:02;20.50;90.30
38209;DHT22;24016;52.102;11.584;2022-09-02T16:41:34;20.50;90.40
38209;DHT22;24016;52.102;11.584;2022-09-02T16:44:06;20.60;90.60
38209;DHT22;24016;52.102;11.584;2022-09-02T16:46:32;20.50;90.40
38209;DHT22;24016;52.102;11.584;2022-09-02T16:48:58;20.50;90.80
38209;DHT22;24016;52.102;11.584;2022-09-02T16:51:25;20.50;90.50
38209;DHT22;24016;52.102;11.584;2022-09-02T16:53:55;20.40;90.60
38209;DHT22;24016;52.102;11.584;2022-09-02T16:56:21;20.40;90.40
38209;DHT22;24016;52.102;11.584;2022-09-02T16:58:47;20.40;90.80
38209;DHT22;24016;52.102;11.584;2022-09-02T17:01:13;20.40;90.60
38209;DHT22;24016;52.102;11.584;2022-09-02T17:03:40;20.30;90.90
38209;DHT22;24016;52.102;11.584;2022-09-02T17:06:06;20.30;90.80
38209;DHT22;24016;52.102;11.584;2022-09-02T17:08:32;20.30;90.90
38209;DHT22;24016;52.102;11.584;2022-09-02T17:11:23;20.30;90.60